createdAt,value
2018-02-18T00:00:08.241Z,102637.73
2018-02-18T00:02:33.995Z,102630.37
2018-02-18T00:04:59.739Z,102632.63
2018-02-18T00:07:25.497Z,102637.92
2018-02-18T00:09:51.247Z,102637.65
2018-02-18T00:12:17.000Z,102634.19
2018-02-18T00:14:44.560Z,102630.04
2018-02-18T00:17:10.304Z,102637.42
2018-02-18T00:19:36.063Z,102634.88
2018-02-18T00:22:01.827Z,102632.98
2018-02-18T00:24:27.609Z,102639.00
2018-02-18T00:26:53.359Z,102631.64
2018-02-18T00:29:19.124Z,102638.67
2018-02-18T00:31:44.880Z,102640.16
2018-02-18T00:34:10.655Z,102641.16
2018-02-18T00:36:36.408Z,102636.89
2018-02-18T00:39:02.170Z,102639.85
2018-02-18T00:41:27.933Z,102639.53
2018-02-18T00:43:53.691Z,102637.04
2018-02-18T00:46:19.448Z,102640.95
2018-02-18T00:48:45.207Z,102631.26
2018-02-18T00:51:10.969Z,102633.73
2018-02-18T00:53:36.747Z,102633.84
2018-02-18T00:56:02.493Z,102632.77
2018-02-18T00:58:28.245Z,102637.31
2018-02-18T01:00:54.008Z,102631.71
2018-02-18T01:03:19.771Z,102631.13
2018-02-18T01:05:45.540Z,102638.84
2018-02-18T01:08:11.301Z,102639.56
2018-02-18T01:10:37.072Z,102646.87
2018-02-18T01:13:02.820Z,102636.05
2018-02-18T01:15:28.575Z,102639.95
2018-02-18T01:17:54.339Z,102636.91
2018-02-18T01:20:20.118Z,102640.03
2018-02-18T01:22:45.894Z,102637.91
2018-02-18T01:25:11.676Z,102635.78
2018-02-18T01:27:37.428Z,102639.16
2018-02-18T01:30:03.217Z,102636.31
2018-02-18T01:32:28.990Z,102645.23
2018-02-18T01:34:54.775Z,102647.49
2018-02-18T01:37:20.518Z,102646.64
2018-02-18T01:39:46.308Z,102645.66
2018-02-18T01:42:12.085Z,102641.75
2018-02-18T01:44:37.865Z,102639.55
2018-02-18T01:47:03.628Z,102640.63
2018-02-18T01:49:29.395Z,102638.30
2018-02-18T01:51:55.200Z,102632.94
2018-02-18T01:54:20.963Z,102633.91
2018-02-18T01:56:46.744Z,102624.43
2018-02-18T01:59:12.503Z,102625.47
2018-02-18T02:01:38.287Z,102621.05
2018-02-18T02:04:04.071Z,102616.69
2018-02-18T02:06:29.851Z,102617.00
2018-02-18T02:08:55.591Z,102618.56
2018-02-18T02:11:21.355Z,102622.14
2018-02-18T02:13:47.107Z,102617.02
2018-02-18T02:16:12.882Z,102620.25
2018-02-18T02:18:38.636Z,102626.73
2018-02-18T02:21:04.398Z,102619.65
2018-02-18T02:23:30.152Z,102620.09
2018-02-18T02:25:55.919Z,102615.23
2018-02-18T02:28:21.664Z,102616.17
2018-02-18T02:30:47.442Z,102620.51
2018-02-18T02:33:13.196Z,102622.33
2018-02-18T02:35:38.943Z,102626.47
2018-02-18T02:38:04.724Z,102626.61
2018-02-18T02:40:30.480Z,102634.30
2018-02-18T02:42:56.254Z,102634.27
2018-02-18T02:45:22.010Z,102628.72
2018-02-18T02:47:47.779Z,102627.55
2018-02-18T02:50:13.535Z,102633.40
2018-02-18T02:52:39.319Z,102623.97
2018-02-18T02:55:05.064Z,102626.95
2018-02-18T02:57:30.849Z,102628.39
2018-02-18T02:59:56.592Z,102630.78
2018-02-18T03:02:22.367Z,102633.59
2018-02-18T03:04:48.120Z,102630.16
2018-02-18T03:07:13.887Z,102634.23
2018-02-18T03:09:39.634Z,102626.57
2018-02-18T03:12:05.395Z,102629.86
2018-02-18T03:14:31.143Z,102636.03
2018-02-18T03:16:56.903Z,102631.86
2018-02-18T03:19:22.651Z,102629.66
2018-02-18T03:21:48.403Z,102633.72
2018-02-18T03:24:14.167Z,102629.45
2018-02-18T03:26:39.911Z,102624.23
2018-02-18T03:29:05.674Z,102618.98
2018-02-18T03:31:31.421Z,102621.51
2018-02-18T03:33:57.167Z,102620.89
2018-02-18T03:36:22.923Z,102624.97
2018-02-18T03:38:48.695Z,102621.52
2018-02-18T03:41:14.451Z,102624.57
2018-02-18T03:43:40.213Z,102624.38
2018-02-18T03:46:05.967Z,102629.48
2018-02-18T03:48:33.207Z,102621.25
2018-02-18T03:50:59.018Z,102616.78
2018-02-18T03:53:24.780Z,102621.28
2018-02-18T03:55:50.522Z,102623.05
2018-02-18T03:58:16.300Z,102622.05
2018-02-18T04:00:42.039Z,102624.34
2018-02-18T04:03:07.798Z,102622.10
2018-02-18T04:05:33.554Z,102626.34
2018-02-18T04:07:59.307Z,102635.36
2018-02-18T04:10:25.065Z,102639.45
2018-02-18T04:12:50.802Z,102636.63
2018-02-18T04:15:16.566Z,102635.48
2018-02-18T04:17:42.312Z,102637.94
2018-02-18T04:20:08.073Z,102632.12
2018-02-18T04:22:33.829Z,102638.30
2018-02-18T04:24:59.584Z,102643.15
2018-02-18T04:27:25.315Z,102648.84
2018-02-18T04:29:51.077Z,102647.64
2018-02-18T04:32:16.835Z,102641.08
2018-02-18T04:34:42.593Z,102652.77
2018-02-18T04:37:08.349Z,102644.80
2018-02-18T04:39:34.111Z,102648.48
2018-02-18T04:41:59.861Z,102646.49
2018-02-18T04:44:25.627Z,102651.00
2018-02-18T04:46:51.371Z,102644.67
2018-02-18T04:49:17.138Z,102652.45
2018-02-18T04:51:42.887Z,102654.27
2018-02-18T04:54:08.640Z,102648.16
2018-02-18T04:56:34.412Z,102654.75
2018-02-18T04:59:00.163Z,102656.70
2018-02-18T05:01:25.923Z,102659.11
2018-02-18T05:03:51.674Z,102663.59
2018-02-18T05:06:17.441Z,102663.13
2018-02-18T05:08:43.190Z,102666.41
2018-02-18T05:11:08.951Z,102665.95
2018-02-18T05:13:34.717Z,102670.07
2018-02-18T05:18:42.391Z,102681.45
2018-02-18T05:21:08.147Z,102677.78
2018-02-18T05:23:33.898Z,102683.20
2018-02-18T05:25:59.655Z,102682.61
2018-02-18T05:28:25.420Z,102674.04
2018-02-18T05:30:51.183Z,102681.28
2018-02-18T05:33:16.951Z,102672.08
2018-02-18T05:35:42.736Z,102674.94
2018-02-18T05:38:08.486Z,102675.56
2018-02-18T05:40:34.247Z,102669.42
2018-02-18T05:43:00.009Z,102668.16
2018-02-18T05:45:25.762Z,102677.82
2018-02-18T05:47:51.524Z,102675.52
2018-02-18T05:50:17.268Z,102677.03
2018-02-18T05:52:43.028Z,102686.34
2018-02-18T05:55:08.785Z,102676.34
2018-02-18T05:57:34.564Z,102683.45
2018-02-18T06:00:00.315Z,102681.63
2018-02-18T06:02:26.100Z,102684.80
2018-02-18T06:04:51.844Z,102678.23
2018-02-18T06:07:17.604Z,102688.28
2018-02-18T06:09:43.359Z,102686.00
2018-02-18T06:12:09.137Z,102685.22
2018-02-18T06:14:34.899Z,102681.85
2018-02-18T06:17:00.686Z,102693.36
2018-02-18T06:19:26.436Z,102689.33
2018-02-18T06:21:52.203Z,102691.42
2018-02-18T06:24:17.983Z,102688.42
2018-02-18T06:26:43.741Z,102690.00
2018-02-18T06:29:09.513Z,102687.64
2018-02-18T06:31:35.268Z,102689.22
2018-02-18T06:34:01.035Z,102691.91
2018-02-18T06:36:26.792Z,102686.34
2018-02-18T06:38:52.559Z,102683.02
2018-02-18T06:41:18.323Z,102682.12
2018-02-18T06:43:44.135Z,102684.08
2018-02-18T06:46:09.875Z,102685.13
2018-02-18T06:48:35.632Z,102678.30
2018-02-18T06:51:01.391Z,102676.36
2018-02-18T06:53:27.159Z,102684.30
2018-02-18T06:55:52.965Z,102681.30
2018-02-18T06:58:18.683Z,102682.41
2018-02-18T07:00:44.440Z,102686.38
2018-02-18T07:03:10.196Z,102679.09
2018-02-18T07:05:35.965Z,102680.33
2018-02-18T07:08:01.713Z,102684.00
2018-02-18T07:10:27.480Z,102685.92
2018-02-18T07:12:53.231Z,102690.83
2018-02-18T07:15:19.004Z,102691.81
2018-02-18T07:17:44.763Z,102695.05
2018-02-18T07:20:10.527Z,102692.00
2018-02-18T07:22:36.285Z,102689.92
2018-02-18T07:25:02.060Z,102691.08
2018-02-18T07:27:27.816Z,102692.23
2018-02-18T07:29:53.581Z,102684.89
2018-02-18T07:32:19.348Z,102691.08
2018-02-18T07:34:45.119Z,102688.13
2018-02-18T07:37:10.864Z,102694.92
2018-02-18T07:39:36.628Z,102695.80
2018-02-18T07:42:02.395Z,102694.64
2018-02-18T07:44:28.148Z,102691.57
2018-02-18T07:46:53.916Z,102697.37
2018-02-18T07:49:19.672Z,102695.69
2018-02-18T07:51:45.421Z,102700.66
2018-02-18T07:54:11.179Z,102701.64
2018-02-18T07:56:36.963Z,102699.36
2018-02-18T08:01:33.091Z,102698.55
2018-02-18T08:03:58.852Z,102697.55
2018-02-18T08:06:24.618Z,102698.91
2018-02-18T08:08:50.391Z,102697.00
2018-02-18T08:11:16.158Z,102699.90
2018-02-18T08:13:41.917Z,102690.78
2018-02-18T08:16:07.700Z,102686.72
2018-02-18T08:18:33.450Z,102678.88
2018-02-18T08:20:59.232Z,102682.01
2018-02-18T08:23:24.989Z,102679.81
2018-02-18T08:25:50.770Z,102681.46
2018-02-18T08:28:16.522Z,102683.91
2018-02-18T08:30:42.312Z,102683.50
2018-02-18T08:33:08.084Z,102680.87
2018-02-18T08:35:33.854Z,102676.48
2018-02-18T08:37:59.629Z,102686.45
2018-02-18T08:40:25.395Z,102678.78
2018-02-18T08:42:51.160Z,102682.41
2018-02-18T08:45:16.920Z,102690.99
2018-02-18T08:47:42.706Z,102685.02
2018-02-18T08:50:08.460Z,102685.61
2018-02-18T08:52:34.270Z,102686.17
2018-02-18T08:55:00.013Z,102677.58
2018-02-18T08:57:25.792Z,102679.53
2018-02-18T08:59:51.564Z,102685.08
2018-02-18T09:02:17.343Z,102676.52
2018-02-18T09:04:43.104Z,102675.91
2018-02-18T09:07:08.875Z,102677.17
2018-02-18T09:09:34.633Z,102678.88
2018-02-18T09:12:00.407Z,102676.20
2018-02-18T09:14:26.173Z,102679.81
2018-02-18T09:16:51.959Z,102679.56
2018-02-18T09:19:17.730Z,102679.48
2018-02-18T09:21:43.500Z,102686.31
2018-02-18T09:24:09.276Z,102684.12
2018-02-18T09:26:35.052Z,102677.48
2018-02-18T09:29:00.832Z,102680.50
2018-02-18T09:31:26.603Z,102679.52
2018-02-18T09:33:52.379Z,102678.94
2018-02-18T09:36:18.140Z,102678.66
2018-02-18T09:38:43.912Z,102677.58
2018-02-18T09:41:09.671Z,102675.80
2018-02-18T09:43:36.967Z,102677.38
2018-02-18T09:46:02.760Z,102677.22
2018-02-18T09:48:28.548Z,102676.69
2018-02-18T09:50:54.303Z,102682.33
2018-02-18T09:53:20.083Z,102683.53
2018-02-18T09:55:45.840Z,102686.34
2018-02-18T09:58:11.620Z,102682.30
2018-02-18T10:00:37.381Z,102682.49
2018-02-18T10:03:03.155Z,102677.02
2018-02-18T10:05:28.936Z,102680.36
2018-02-18T10:07:54.707Z,102674.56
2018-02-18T10:10:20.488Z,102672.27
2018-02-18T10:12:46.243Z,102679.91
2018-02-18T10:15:12.014Z,102675.94
2018-02-18T10:17:37.779Z,102681.42
2018-02-18T10:20:03.641Z,102679.52
2018-02-18T10:22:29.417Z,102681.49
2018-02-18T10:24:55.221Z,102681.69
2018-02-18T10:27:21.009Z,102674.47
2018-02-18T10:29:46.783Z,102685.17
2018-02-18T10:32:12.555Z,102682.03
2018-02-18T10:34:38.355Z,102671.02
2018-02-18T10:37:04.127Z,102672.46
2018-02-18T10:39:29.920Z,102673.33
2018-02-18T10:41:55.702Z,102670.14
2018-02-18T10:44:21.484Z,102672.49
2018-02-18T10:46:47.271Z,102673.25
2018-02-18T10:49:13.085Z,102674.18
2018-02-18T10:51:38.877Z,102670.89
2018-02-18T10:54:04.655Z,102667.78
2018-02-18T10:56:30.430Z,102660.37
2018-02-18T10:58:56.207Z,102664.55
2018-02-18T11:01:21.980Z,102659.30
2018-02-18T11:03:47.752Z,102660.55
2018-02-18T11:06:13.532Z,102658.27
2018-02-18T11:08:39.294Z,102657.64
2018-02-18T11:11:05.078Z,102650.05
2018-02-18T11:13:30.840Z,102652.89
2018-02-18T11:15:56.615Z,102649.22
2018-02-18T11:18:22.405Z,102649.14
2018-02-18T11:20:48.202Z,102645.78
2018-02-18T11:23:13.951Z,102637.93
2018-02-18T11:25:39.742Z,102636.40
2018-02-18T11:28:05.549Z,102633.00
2018-02-18T11:30:31.389Z,102626.55
2018-02-18T11:32:57.201Z,102624.03
2018-02-18T11:35:24.174Z,102616.70
2018-02-18T11:37:49.948Z,102620.26
2018-02-18T11:40:15.719Z,102613.84
2018-02-18T11:42:41.496Z,102611.76
2018-02-18T11:45:07.328Z,102607.28
2018-02-18T11:47:33.318Z,102611.50
2018-02-18T11:49:59.088Z,102606.55
2018-02-18T11:52:24.884Z,102600.88
2018-02-18T11:54:50.646Z,102599.81
2018-02-18T11:57:16.472Z,102598.94
2018-02-18T11:59:42.222Z,102597.03
2018-02-18T12:02:08.804Z,102592.49
2018-02-18T12:04:34.611Z,102587.73
2018-02-18T12:07:00.403Z,102584.75
2018-02-18T12:09:26.168Z,102583.81
2018-02-18T12:11:51.993Z,102575.48
2018-02-18T12:14:17.751Z,102569.28
2018-02-18T12:16:43.543Z,102573.05
2018-02-18T12:19:09.393Z,102572.80
2018-02-18T12:21:35.251Z,102572.58
2018-02-18T12:24:01.027Z,102566.11
2018-02-18T12:26:26.903Z,102561.83
2018-02-18T12:28:52.665Z,102569.43
2018-02-18T12:31:18.495Z,102559.71
2018-02-18T12:33:44.260Z,102565.95
2018-02-18T12:36:10.047Z,102560.25
2018-02-18T12:38:36.160Z,102559.35
2018-02-18T12:41:01.948Z,102557.57
2018-02-18T12:43:27.753Z,102559.10
2018-02-18T12:45:53.519Z,102553.73
2018-02-18T12:48:19.455Z,102546.45
2018-02-18T12:50:45.399Z,102551.11
2018-02-18T12:53:11.225Z,102538.58
2018-02-18T12:55:36.999Z,102534.94
2018-02-18T12:58:02.795Z,102535.14
2018-02-18T13:00:28.595Z,102542.02
2018-02-18T13:02:54.364Z,102531.78
2018-02-18T13:05:20.202Z,102537.59
2018-02-18T13:07:45.976Z,102532.55
2018-02-18T13:10:11.769Z,102529.50
2018-02-18T13:12:37.541Z,102520.98
2018-02-18T13:15:03.324Z,102519.39
2018-02-18T13:17:29.096Z,102519.56
2018-02-18T13:19:54.872Z,102518.55
2018-02-18T13:22:20.647Z,102516.67
2018-02-18T13:24:46.442Z,102504.20
2018-02-18T13:27:12.213Z,102493.97
2018-02-18T13:29:37.986Z,102505.08
2018-02-18T13:32:03.757Z,102502.21
2018-02-18T13:34:29.540Z,102495.84
2018-02-18T13:36:55.318Z,102488.53
2018-02-18T13:39:21.106Z,102498.13
2018-02-18T13:41:46.879Z,102489.50
2018-02-18T13:44:12.652Z,102491.66
2018-02-18T13:46:38.444Z,102495.75
2018-02-18T13:49:04.212Z,102496.52
2018-02-18T13:51:29.984Z,102488.47
2018-02-18T13:53:55.780Z,102484.50
2018-02-18T13:56:21.544Z,102482.94
2018-02-18T13:58:47.319Z,102491.09
2018-02-18T14:01:13.096Z,102492.29
2018-02-18T14:03:38.870Z,102492.83
2018-02-18T14:06:04.655Z,102490.77
2018-02-18T14:08:30.431Z,102491.06
2018-02-18T14:10:56.208Z,102490.77
2018-02-18T14:13:22.035Z,102492.13
2018-02-18T14:15:47.899Z,102484.95
2018-02-18T14:18:13.678Z,102487.55
2018-02-18T14:20:39.456Z,102481.17
2018-02-18T14:23:05.290Z,102489.14
2018-02-18T14:25:31.055Z,102488.58
2018-02-18T14:27:56.824Z,102481.93
2018-02-18T14:30:22.603Z,102485.13
2018-02-18T14:32:48.357Z,102479.46
2018-02-18T14:35:14.161Z,102477.25
2018-02-18T14:37:39.920Z,102482.92
2018-02-18T14:40:05.711Z,102484.69
2018-02-18T14:42:43.812Z,102481.80
2018-02-18T14:45:22.137Z,102472.09
2018-02-18T14:48:00.307Z,102474.63
2018-02-18T14:50:38.359Z,102464.45
2018-02-18T14:53:16.471Z,102472.42
2018-02-18T14:55:54.529Z,102465.35
2018-02-18T14:58:20.276Z,102471.80
2018-02-18T15:00:46.045Z,102466.30
2018-02-18T15:03:11.808Z,102467.36
2018-02-18T15:05:37.579Z,102469.12
2018-02-18T15:08:03.344Z,102463.36
2018-02-18T15:10:29.123Z,102464.73
2018-02-18T15:12:55.420Z,102469.85
2018-02-18T15:15:21.170Z,102467.23
2018-02-18T15:17:46.936Z,102463.48
2018-02-18T15:20:12.697Z,102465.97
2018-02-18T15:22:38.487Z,102464.24
2018-02-18T15:25:04.238Z,102458.77
2018-02-18T15:27:30.004Z,102462.56
2018-02-18T15:29:55.775Z,102458.21
2018-02-18T15:32:21.562Z,102466.91
2018-02-18T15:34:47.311Z,102472.12
2018-02-18T15:37:13.076Z,102473.36
2018-02-18T15:39:38.835Z,102471.50
2018-02-18T15:42:04.614Z,102469.22
2018-02-18T15:44:30.371Z,102463.91
2018-02-18T15:46:56.192Z,102459.38
2018-02-18T15:49:21.915Z,102452.80
2018-02-18T15:51:47.695Z,102445.72
2018-02-18T15:54:13.456Z,102445.98
2018-02-18T15:56:39.223Z,102441.77
2018-02-18T15:59:04.993Z,102449.55
2018-02-18T16:01:30.767Z,102448.17
2018-02-18T16:03:56.528Z,102444.55
2018-02-18T16:06:22.302Z,102454.08
2018-02-18T16:08:48.064Z,102447.88
2018-02-18T16:11:13.836Z,102449.92
2018-02-18T16:13:39.595Z,102449.18
2018-02-18T16:16:05.383Z,102447.31
2018-02-18T16:18:31.136Z,102447.23
2018-02-18T16:20:56.904Z,102442.99
2018-02-18T16:23:22.686Z,102438.50
2018-02-18T16:25:48.428Z,102439.08
2018-02-18T16:28:14.196Z,102441.29
2018-02-18T16:30:39.957Z,102439.01
2018-02-18T16:33:05.724Z,102433.56
2018-02-18T16:35:31.478Z,102434.63
2018-02-18T16:37:57.247Z,102430.95
2018-02-18T16:40:23.015Z,102437.52
2018-02-18T16:42:48.821Z,102434.08
2018-02-18T16:45:14.568Z,102433.86
2018-02-18T16:47:40.512Z,102429.34
2018-02-18T16:50:06.264Z,102440.36
2018-02-18T16:52:32.032Z,102431.80
2018-02-18T16:54:57.788Z,102428.33
2018-02-18T16:57:23.572Z,102431.66
2018-02-18T16:59:49.329Z,102427.96
2018-02-18T17:02:15.088Z,102419.72
2018-02-18T17:04:40.877Z,102416.56
2018-02-18T17:07:06.634Z,102421.75
2018-02-18T17:09:32.395Z,102421.20
2018-02-18T17:11:58.147Z,102422.50
2018-02-18T17:14:23.917Z,102421.94
2018-02-18T17:16:49.663Z,102422.89
2018-02-18T17:19:15.419Z,102422.09
2018-02-18T17:21:41.174Z,102417.48
2018-02-18T17:24:06.952Z,102421.34
2018-02-18T17:26:32.720Z,102415.93
2018-02-18T17:28:58.490Z,102416.23
2018-02-18T17:31:24.262Z,102418.62
2018-02-18T17:33:50.034Z,102420.45
2018-02-18T17:36:15.780Z,102419.90
2018-02-18T17:38:41.563Z,102416.44
2018-02-18T17:41:07.314Z,102420.91
2018-02-18T17:43:33.085Z,102412.33
2018-02-18T17:45:58.851Z,102417.94
2018-02-18T17:48:24.611Z,102426.83
2018-02-18T17:50:50.376Z,102421.35
2018-02-18T17:53:16.135Z,102418.98
2018-02-18T17:55:41.904Z,102412.63
2018-02-18T17:58:07.655Z,102404.13
2018-02-18T18:00:33.424Z,102410.14
2018-02-18T18:02:59.216Z,102415.97
2018-02-18T18:05:24.944Z,102412.55
2018-02-18T18:07:50.693Z,102411.05
2018-02-18T18:10:16.454Z,102412.81
2018-02-18T18:12:42.253Z,102413.60
2018-02-18T18:15:07.980Z,102406.95
2018-02-18T18:17:33.727Z,102414.03
2018-02-18T18:19:59.511Z,102404.69
2018-02-18T18:22:25.264Z,102405.09
2018-02-18T18:24:51.039Z,102403.27
2018-02-18T18:27:16.783Z,102398.43
2018-02-18T18:29:42.519Z,102404.84
2018-02-18T18:32:08.293Z,102402.38
2018-02-18T18:34:34.043Z,102402.59
2018-02-18T18:36:59.815Z,102395.13
2018-02-18T18:39:25.581Z,102391.55
2018-02-18T18:41:51.351Z,102383.23
2018-02-18T18:44:17.105Z,102385.36
2018-02-18T18:46:42.875Z,102378.27
2018-02-18T18:49:08.616Z,102384.96
2018-02-18T18:51:34.368Z,102383.22
2018-02-18T18:54:00.116Z,102375.41
2018-02-18T18:56:25.878Z,102375.53
2018-02-18T18:58:51.652Z,102364.88
2018-02-18T19:01:17.420Z,102367.55
2018-02-18T19:03:43.185Z,102358.43
2018-02-18T19:06:08.951Z,102356.92
2018-02-18T19:08:34.706Z,102357.30
2018-02-18T19:11:00.483Z,102349.64
2018-02-18T19:13:26.244Z,102350.54
2018-02-18T19:15:52.003Z,102351.13
2018-02-18T19:18:17.783Z,102350.49
2018-02-18T19:20:43.543Z,102345.48
2018-02-18T19:23:09.308Z,102344.09
2018-02-18T19:25:35.063Z,102333.84
2018-02-18T19:28:00.839Z,102336.69
2018-02-18T19:30:26.619Z,102338.30
2018-02-18T19:32:52.387Z,102339.45
2018-02-18T19:35:18.145Z,102333.70
2018-02-18T19:37:43.924Z,102336.19
2018-02-18T19:40:09.672Z,102342.36
2018-02-18T19:42:35.449Z,102339.66
2018-02-18T19:45:01.220Z,102343.72
2018-02-18T19:47:26.983Z,102337.81
2018-02-18T19:49:52.752Z,102334.40
2018-02-18T19:52:18.528Z,102338.20
2018-02-18T19:54:44.269Z,102337.61
2018-02-18T19:57:10.044Z,102333.80
2018-02-18T19:59:35.811Z,102339.25
2018-02-18T20:02:02.495Z,102335.55
2018-02-18T20:04:28.270Z,102332.30
2018-02-18T20:06:54.012Z,102333.80
2018-02-18T20:09:19.761Z,102335.73
2018-02-18T20:11:45.527Z,102328.56
2018-02-18T20:14:11.299Z,102329.06
2018-02-18T20:16:37.046Z,102330.32
2018-02-18T20:19:02.806Z,102333.34
2018-02-18T20:21:28.565Z,102325.56
2018-02-18T20:23:54.343Z,102330.59
2018-02-18T20:26:20.111Z,102320.09
2018-02-18T20:28:45.886Z,102318.09
2018-02-18T20:31:11.643Z,102317.23
2018-02-18T20:33:37.423Z,102307.95
2018-02-18T20:36:03.186Z,102305.39
2018-02-18T20:38:28.975Z,102308.50
2018-02-18T20:40:54.762Z,102305.27
2018-02-18T20:43:20.566Z,102304.83
2018-02-18T20:45:46.348Z,102308.39
2018-02-18T20:48:12.108Z,102304.63
2018-02-18T20:50:37.893Z,102301.18
2018-02-18T20:53:03.658Z,102299.12
2018-02-18T20:55:29.431Z,102299.61
2018-02-18T20:57:55.204Z,102294.84
2018-02-18T21:00:20.989Z,102288.47
2018-02-18T21:02:46.743Z,102287.96
2018-02-18T21:05:12.518Z,102291.78
2018-02-18T21:07:38.292Z,102299.06
2018-02-18T21:10:04.064Z,102296.36
2018-02-18T21:12:29.832Z,102291.95
2018-02-18T21:14:55.617Z,102290.97
2018-02-18T21:17:21.371Z,102289.31
2018-02-18T21:19:47.143Z,102291.55
2018-02-18T21:22:12.910Z,102285.54
2018-02-18T21:24:38.681Z,102278.12
2018-02-18T21:27:04.449Z,102279.38
2018-02-18T21:29:30.194Z,102285.22
2018-02-18T21:31:55.957Z,102284.86
2018-02-18T21:34:21.720Z,102275.63
2018-02-18T21:36:47.494Z,102275.32
2018-02-18T21:39:13.246Z,102274.56
2018-02-18T21:41:39.021Z,102275.02
2018-02-18T21:44:04.781Z,102270.55
2018-02-18T21:46:30.573Z,102276.81
2018-02-18T21:48:56.357Z,102272.09
2018-02-18T21:51:22.127Z,102267.45
2018-02-18T21:53:47.940Z,102268.70
2018-02-18T21:56:13.707Z,102262.09
2018-02-18T21:58:39.470Z,102267.35
2018-02-18T22:01:05.256Z,102268.32
2018-02-18T22:03:31.008Z,102266.16
2018-02-18T22:05:56.788Z,102267.16
2018-02-18T22:08:22.548Z,102263.70
2018-02-18T22:10:48.314Z,102260.59
2018-02-18T22:13:14.084Z,102260.18
2018-02-18T22:15:39.855Z,102263.34
2018-02-18T22:18:05.616Z,102256.38
2018-02-18T22:20:31.367Z,102268.47
2018-02-18T22:22:57.127Z,102267.06
2018-02-18T22:25:22.879Z,102268.67
2018-02-18T22:27:48.651Z,102263.64
2018-02-18T22:30:14.416Z,102261.34
2018-02-18T22:32:40.179Z,102261.24
2018-02-18T22:35:05.939Z,102255.02
2018-02-18T22:37:31.711Z,102250.86
2018-02-18T22:39:57.465Z,102257.33
2018-02-18T22:42:23.235Z,102246.95
2018-02-18T22:44:48.991Z,102251.27
2018-02-18T22:47:14.759Z,102248.11
2018-02-18T22:49:40.525Z,102241.91
2018-02-18T22:52:06.308Z,102240.45
2018-02-18T22:54:32.060Z,102245.25
2018-02-18T22:56:57.831Z,102241.50
2018-02-18T22:59:23.592Z,102238.70
2018-02-18T23:01:49.355Z,102244.83
2018-02-18T23:04:15.121Z,102240.05
2018-02-18T23:06:40.883Z,102239.41
2018-02-18T23:09:06.979Z,102236.30
2018-02-18T23:11:33.077Z,102233.84
2018-02-18T23:13:58.927Z,102232.39
2018-02-18T23:16:24.987Z,102228.58
2018-02-18T23:18:51.091Z,102226.67
2018-02-18T23:21:16.868Z,102231.34
2018-02-18T23:23:42.800Z,102221.16
2018-02-18T23:26:08.559Z,102219.36
2018-02-18T23:28:34.387Z,102215.15
2018-02-18T23:31:00.139Z,102218.64
2018-02-18T23:33:25.910Z,102212.34
2018-02-18T23:35:51.667Z,102209.53
2018-02-18T23:38:17.433Z,102207.67
2018-02-18T23:40:43.200Z,102203.06
2018-02-18T23:43:08.951Z,102202.72
2018-02-18T23:45:34.732Z,102204.58
2018-02-18T23:48:00.478Z,102199.01
2018-02-18T23:50:26.412Z,102197.56
2018-02-18T23:52:52.178Z,102192.25
2018-02-18T23:55:17.948Z,102196.15
2018-02-18T23:57:43.723Z,102193.04
